Time;durP1;ratioP1;P1;durP2;ratioP2;P2;SDS_P1;SDS_P2;PMS_P1;PMS_P2;Temp;Humidity;BMP_temperature;BMP_pressure;BME280_temperature;BME280_humidity;BME280_pressure;Samples;Min_cycle;Max_cycle;Signal;HPM_P1;HPM_P2
2022/03/29 00:02:14;;;;;;;39.03;18.57;;;11.60;99.00;;;;;;5073746;28;20520;-71
2022/03/29 00:04:40;;;;;;;36.87;19.43;;;11.70;99.30;;;;;;5076935;28;20836;-71
2022/03/29 00:07:08;;;;;;;32.93;17.87;;;11.70;99.70;;;;;;5081995;28;20478;-71
2022/03/29 00:09:35;;;;;;;36.83;19.47;;;11.70;99.90;;;;;;5083256;28;20486;-71
2022/03/29 00:12:02;;;;;;;36.17;19.80;;;11.70;99.90;;;;;;5078046;28;20460;-71
2022/03/29 00:14:28;;;;;;;40.93;21.57;;;11.60;99.90;;;;;;5075425;28;20448;-70
2022/03/29 00:16:55;;;;;;;37.87;19.73;;;11.60;99.90;;;;;;5086255;28;20500;-71
2022/03/29 00:19:21;;;;;;;43.80;20.67;;;11.60;99.90;;;;;;5073240;28;20444;-70
2022/03/29 00:21:48;;;;;;;43.57;20.40;;;11.60;99.90;;;;;;5080063;28;20505;-71
2022/03/29 00:24:16;;;;;;;49.57;21.57;;;11.60;99.90;;;;;;5079618;28;20481;-71
2022/03/29 00:26:43;;;;;;;43.80;21.80;;;11.60;99.90;;;;;;5079522;28;20447;-71
2022/03/29 00:29:09;;;;;;;48.37;21.10;;;11.60;99.90;;;;;;5078836;28;20482;-71
2022/03/29 00:31:36;;;;;;;48.00;21.67;;;11.60;99.90;;;;;;5082971;28;20455;-70
2022/03/29 00:34:03;;;;;;;42.87;21.77;;;11.50;99.90;;;;;;5077239;28;20481;-71
2022/03/29 00:36:31;;;;;;;51.20;21.93;;;11.50;99.90;;;;;;5083953;28;20451;-71
2022/03/29 00:38:58;;;;;;;40.40;22.50;;;11.50;99.90;;;;;;5087297;28;20469;-71
2022/03/29 00:41:26;;;;;;;50.13;22.73;;;11.50;99.90;;;;;;5083405;28;21016;-71
2022/03/29 00:43:52;;;;;;;49.20;23.90;;;11.50;99.90;;;;;;5076400;28;20458;-71
2022/03/29 00:46:20;;;;;;;50.67;22.40;;;11.50;99.90;;;;;;5076052;28;20451;-71
2022/03/29 00:48:46;;;;;;;45.80;23.20;;;11.40;99.90;;;;;;5079831;28;21014;-70
2022/03/29 00:51:13;;;;;;;46.90;22.80;;;11.40;99.90;;;;;;5081572;28;20496;-70
2022/03/29 00:53:40;;;;;;;42.90;22.13;;;11.40;99.90;;;;;;5082738;28;20442;-71
2022/03/29 00:56:06;;;;;;;42.87;23.00;;;11.30;99.90;;;;;;5078020;28;20455;-71
2022/03/29 00:58:36;;;;;;;50.33;23.73;;;11.30;99.90;;;;;;5077773;28;20864;-71
2022/03/29 01:01:03;;;;;;;46.83;22.23;;;11.30;99.90;;;;;;5069731;28;20963;-71
2022/03/29 01:03:31;;;;;;;44.30;22.30;;;11.30;99.90;;;;;;5076952;28;20466;-71
2022/03/29 01:05:58;;;;;;;46.90;24.50;;;11.30;99.90;;;;;;5080005;28;20451;-71
2022/03/29 01:08:25;;;;;;;45.87;22.90;;;11.30;99.90;;;;;;5080662;28;20483;-71
2022/03/29 01:10:52;;;;;;;46.63;24.20;;;11.30;99.90;;;;;;5077970;28;20455;-71
2022/03/29 01:13:19;;;;;;;43.40;23.30;;;11.20;99.90;;;;;;5084640;28;21198;-71
2022/03/29 01:15:47;;;;;;;48.00;24.13;;;11.20;99.90;;;;;;5076232;28;20873;-71
2022/03/29 01:18:16;;;;;;;46.83;23.60;;;11.20;99.90;;;;;;5082249;28;20849;-71
2022/03/29 01:20:44;;;;;;;51.07;23.63;;;11.20;99.90;;;;;;5081721;28;21076;-71
2022/03/29 01:23:12;;;;;;;44.83;24.17;;;11.20;99.90;;;;;;5080668;28;21008;-70
2022/03/29 01:25:41;;;;;;;48.80;25.60;;;11.20;99.90;;;;;;5088125;28;20504;-71
2022/03/29 01:28:08;;;;;;;47.77;24.17;;;11.20;99.90;;;;;;5091367;28;20470;-71
2022/03/29 01:30:35;;;;;;;48.53;23.50;;;11.20;99.90;;;;;;5079757;28;20527;-70
2022/03/29 01:33:05;;;;;;;47.53;22.83;;;11.20;99.90;;;;;;5079984;28;20625;-71
2022/03/29 01:35:31;;;;;;;51.20;25.50;;;11.20;99.90;;;;;;5081446;28;20497;-71
2022/03/29 01:37:58;;;;;;;49.43;26.00;;;11.10;99.90;;;;;;5085260;28;21049;-71
2022/03/29 01:40:28;;;;;;;45.70;24.10;;;11.10;99.90;;;;;;5084273;28;20454;-71
2022/03/29 01:42:57;;;;;;;43.87;24.20;;;11.00;99.90;;;;;;5087443;28;20450;-71
2022/03/29 01:45:25;;;;;;;48.47;24.73;;;11.00;99.90;;;;;;5082050;28;20514;-71
2022/03/29 01:47:52;;;;;;;53.37;25.10;;;10.90;99.90;;;;;;5077068;28;20500;-71
2022/03/29 01:50:19;;;;;;;53.50;26.13;;;10.90;99.90;;;;;;5085068;28;20777;-71
2022/03/29 01:52:47;;;;;;;56.30;27.90;;;10.80;99.90;;;;;;5086685;28;20460;-70
2022/03/29 01:55:16;;;;;;;50.27;26.17;;;10.70;99.90;;;;;;5079301;28;20463;-71
2022/03/29 01:57:44;;;;;;;50.70;25.30;;;10.70;99.90;;;;;;5077079;28;20475;-71
2022/03/29 02:00:31;;;;;;;54.67;26.40;;;10.70;99.90;;;;;;5081536;28;20497;-71
2022/03/29 02:02:59;;;;;;;54.50;25.80;;;10.60;99.90;;;;;;5086529;28;20589;-71
2022/03/29 02:05:26;;;;;;;56.17;26.03;;;10.80;99.90;;;;;;5074665;28;20456;-71
2022/03/29 02:07:53;;;;;;;59.43;26.40;;;10.60;99.90;;;;;;5082437;28;20524;-71
2022/03/29 02:10:21;;;;;;;47.47;26.83;;;10.50;99.90;;;;;;5080583;28;20482;-71
2022/03/29 02:12:51;;;;;;;55.40;24.67;;;10.50;99.90;;;;;;5086840;28;20448;-71
2022/03/29 02:15:19;;;;;;;53.03;25.37;;;10.40;99.90;;;;;;5076283;28;20947;-71
2022/03/29 02:17:48;;;;;;;48.00;25.77;;;10.40;99.90;;;;;;5080394;28;20539;-71
2022/03/29 02:20:15;;;;;;;44.40;24.03;;;10.30;99.90;;;;;;5084678;28;21113;-71
2022/03/29 02:22:42;;;;;;;51.70;25.93;;;10.20;99.90;;;;;;5082161;28;20447;-71
2022/03/29 02:25:10;;;;;;;49.03;24.73;;;10.20;99.90;;;;;;5083427;28;20955;-71
2022/03/29 02:27:37;;;;;;;49.50;25.80;;;10.20;99.90;;;;;;5077557;28;20471;-70
2022/03/29 02:30:07;;;;;;;52.70;25.87;;;10.10;99.90;;;;;;5082902;28;20492;-71
2022/03/29 02:32:34;;;;;;;50.60;25.80;;;10.10;99.90;;;;;;5087535;28;20443;-71
2022/03/29 02:35:00;;;;;;;51.90;25.60;;;10.10;99.90;;;;;;5088721;28;21148;-71
2022/03/29 02:37:27;;;;;;;45.67;25.90;;;10.10;99.90;;;;;;5078085;28;20528;-70
2022/03/29 02:39:53;;;;;;;63.07;26.10;;;10.00;99.90;;;;;;5082196;28;20448;-71
2022/03/29 02:42:20;;;;;;;52.47;26.40;;;10.00;99.90;;;;;;5083444;28;20500;-70
2022/03/29 02:44:47;;;;;;;51.20;26.50;;;10.00;99.90;;;;;;5082270;28;20451;-71
2022/03/29 02:47:15;;;;;;;45.43;23.77;;;9.90;99.90;;;;;;5083103;28;20470;-71
2022/03/29 02:49:41;;;;;;;47.00;24.60;;;9.90;99.90;;;;;;5082237;28;20528;-71
2022/03/29 02:52:08;;;;;;;52.70;25.67;;;9.80;99.90;;;;;;5076052;28;20443;-71
2022/03/29 02:54:35;;;;;;;55.77;26.10;;;9.80;99.90;;;;;;5079933;28;20499;-70
2022/03/29 02:57:02;;;;;;;46.30;24.67;;;9.80;99.90;;;;;;5075455;28;20841;-71
2022/03/29 02:59:28;;;;;;;50.33;25.43;;;9.70;99.90;;;;;;5074743;28;20449;-70
2022/03/29 03:01:56;;;;;;;45.37;25.43;;;9.60;99.90;;;;;;5075464;28;20447;-70
2022/03/29 03:04:24;;;;;;;51.17;25.77;;;9.60;99.90;;;;;;5077576;28;20455;-70
2022/03/29 03:06:51;;;;;;;54.80;26.27;;;9.50;99.90;;;;;;5086994;28;20946;-70
2022/03/29 03:09:18;;;;;;;55.73;26.50;;;9.50;99.90;;;;;;5081042;28;20562;-71
2022/03/29 03:11:45;;;;;;;54.93;25.80;;;9.40;99.90;;;;;;5078550;28;20534;-70
2022/03/29 03:14:12;;;;;;;50.10;25.97;;;9.40;99.90;;;;;;5082063;28;20443;-71
2022/03/29 03:16:38;;;;;;;52.37;26.03;;;9.40;99.90;;;;;;5082227;28;20812;-71
2022/03/29 03:19:05;;;;;;;60.40;26.30;;;9.30;99.90;;;;;;5080313;28;20464;-71
2022/03/29 03:21:33;;;;;;;57.67;26.97;;;9.30;99.90;;;;;;5085456;28;20449;-71
2022/03/29 03:23:59;;;;;;;53.07;27.90;;;9.30;99.90;;;;;;5079110;28;20456;-70
2022/03/29 03:26:26;;;;;;;65.43;28.97;;;9.30;99.90;;;;;;5079889;28;20508;-71
2022/03/29 03:28:53;;;;;;;56.93;26.77;;;9.30;99.90;;;;;;5081099;28;20467;-71
2022/03/29 03:31:19;;;;;;;59.47;27.70;;;9.30;99.90;;;;;;5075803;28;20993;-71
2022/03/29 03:33:46;;;;;;;55.27;27.13;;;9.30;99.90;;;;;;5080690;28;20493;-71
2022/03/29 03:36:12;;;;;;;51.60;26.03;;;9.30;99.90;;;;;;5074115;28;20447;-71
2022/03/29 03:38:40;;;;;;;64.70;27.93;;;9.30;99.90;;;;;;5074955;28;20464;-70
2022/03/29 03:41:07;;;;;;;64.20;28.70;;;9.60;99.90;;;;;;5074088;28;21012;-70
2022/03/29 03:43:34;;;;;;;55.20;28.20;;;9.30;99.90;;;;;;5077835;28;20444;-70
2022/03/29 03:46:00;;;;;;;61.97;28.40;;;9.30;99.90;;;;;;5079252;28;20447;-70
2022/03/29 03:48:27;;;;;;;62.33;28.90;;;9.30;99.90;;;;;;5082157;28;20486;-71
2022/03/29 03:50:54;;;;;;;62.50;28.73;;;9.30;99.90;;;;;;5074661;28;20835;-71
2022/03/29 03:53:20;;;;;;;64.67;27.17;;;9.30;99.90;;;;;;5078841;28;20501;-70
2022/03/29 03:55:48;;;;;;;54.33;27.03;;;9.30;99.90;;;;;;5074751;28;20517;-70
2022/03/29 03:58:16;;;;;;;69.07;28.70;;;9.30;99.90;;;;;;5075438;28;20600;-71
2022/03/29 04:00:43;;;;;;;57.40;27.87;;;9.30;99.90;;;;;;5074464;28;20446;-70
2022/03/29 04:03:10;;;;;;;53.80;27.93;;;9.30;99.90;;;;;;5076331;28;20528;-71
2022/03/29 04:05:38;;;;;;;54.33;25.73;;;9.20;99.90;;;;;;5080220;28;21007;-71
2022/03/29 04:08:05;;;;;;;60.13;28.67;;;9.10;99.90;;;;;;5085535;28;20849;-71
2022/03/29 04:10:33;;;;;;;65.40;28.93;;;9.10;99.90;;;;;;5086685;28;20481;-71
2022/03/29 04:13:01;;;;;;;57.50;27.60;;;9.00;99.90;;;;;;5078581;28;20455;-70
2022/03/29 04:15:28;;;;;;;60.87;28.67;;;9.00;99.90;;;;;;5074693;28;20447;-71
2022/03/29 04:17:55;;;;;;;56.80;27.80;;;9.00;99.90;;;;;;5080004;28;21001;-71
2022/03/29 04:20:22;;;;;;;53.70;27.70;;;9.00;99.90;;;;;;5077424;28;20894;-71
2022/03/29 04:22:49;;;;;;;67.60;29.70;;;8.90;99.90;;;;;;5078940;28;20492;-70
2022/03/29 04:25:15;;;;;;;66.87;30.40;;;8.90;99.90;;;;;;5073403;28;20460;-71
2022/03/29 04:27:42;;;;;;;61.43;28.53;;;8.90;99.90;;;;;;5073065;28;20517;-71
2022/03/29 04:30:12;;;;;;;61.47;30.30;;;8.90;99.90;;;;;;5074078;28;20889;-71
2022/03/29 04:32:38;;;;;;;59.20;28.57;;;8.80;99.90;;;;;;5085704;28;20614;-71
2022/03/29 04:35:06;;;;;;;63.07;28.70;;;8.80;99.90;;;;;;5075233;28;20545;-71
2022/03/29 04:37:33;;;;;;;63.30;28.40;;;8.80;99.90;;;;;;5081122;28;21051;-70
2022/03/29 04:40:00;;;;;;;67.03;29.33;;;8.80;99.90;;;;;;5085929;28;20440;-71
2022/03/29 04:42:26;;;;;;;62.07;28.50;;;8.80;99.90;;;;;;5083228;28;20515;-71
2022/03/29 04:44:53;;;;;;;72.63;29.73;;;8.80;99.90;;;;;;5072446;28;20443;-70
2022/03/29 04:47:21;;;;;;;57.73;27.60;;;8.70;99.90;;;;;;5077316;28;20467;-71
2022/03/29 04:49:47;;;;;;;64.30;28.57;;;8.70;99.90;;;;;;5075257;28;20487;-70
2022/03/29 04:52:14;;;;;;;65.83;26.60;;;8.70;99.90;;;;;;5079683;28;20450;-71
2022/03/29 04:54:41;;;;;;;63.63;28.70;;;8.70;99.90;;;;;;5074984;28;20443;-70
2022/03/29 04:57:07;;;;;;;59.10;28.80;;;8.70;99.90;;;;;;5076465;28;20977;-71
2022/03/29 04:59:34;;;;;;;59.77;26.77;;;8.70;99.90;;;;;;5077758;28;20496;-71
2022/03/29 05:02:01;;;;;;;57.37;25.90;;;8.70;99.90;;;;;;5081916;28;20515;-71
2022/03/29 05:04:30;;;;;;;54.33;26.77;;;8.60;99.90;;;;;;5076942;28;20448;-71
2022/03/29 05:06:56;;;;;;;55.07;27.10;;;8.60;99.90;;;;;;5073530;28;20478;-71
2022/03/29 05:09:23;;;;;;;63.17;27.73;;;8.60;99.90;;;;;;5078338;28;20446;-70
2022/03/29 05:11:50;;;;;;;53.07;25.40;;;8.60;99.90;;;;;;5079352;28;20544;-70
2022/03/29 05:14:16;;;;;;;52.43;25.90;;;8.60;99.90;;;;;;5082509;28;20505;-71
2022/03/29 05:16:43;;;;;;;49.07;26.00;;;8.50;99.90;;;;;;5081872;28;20446;-70
2022/03/29 05:19:10;;;;;;;58.40;26.03;;;8.50;99.90;;;;;;5079528;28;20975;-73
2022/03/29 05:21:38;;;;;;;62.27;27.03;;;8.50;99.90;;;;;;5081038;28;20442;-73
2022/03/29 05:24:05;;;;;;;51.47;25.10;;;8.50;99.90;;;;;;5080168;28;20451;-73
2022/03/29 05:26:32;;;;;;;59.83;25.83;;;8.50;99.90;;;;;;5076796;28;20513;-72
2022/03/29 05:28:58;;;;;;;48.00;24.47;;;8.50;99.90;;;;;;5074566;28;20475;-72
2022/03/29 05:31:25;;;;;;;49.57;25.47;;;8.50;99.90;;;;;;5080516;28;20474;-72
2022/03/29 05:33:52;;;;;;;49.60;25.50;;;8.50;99.90;;;;;;5080181;28;20493;-73
2022/03/29 05:36:18;;;;;;;56.27;24.83;;;8.50;99.90;;;;;;5071149;28;20866;-72
2022/03/29 05:38:50;;;;;;;57.93;25.00;;;8.50;99.90;;;;;;5078696;28;20512;-72
2022/03/29 05:41:19;;;;;;;53.47;25.97;;;8.50;99.90;;;;;;5079122;28;20471;-72
2022/03/29 05:43:46;;;;;;;59.63;24.27;;;8.60;99.90;;;;;;5081196;28;20447;-73
2022/03/29 05:48:56;;;;;;;59.90;25.23;;;8.60;99.90;;;;;;5079579;28;20508;-73
2022/03/29 05:51:25;;;;;;;46.50;25.27;;;8.70;99.90;;;;;;5075576;28;20478;-73
2022/03/29 05:53:54;;;;;;;44.40;23.43;;;8.70;99.90;;;;;;5078677;28;20447;-73
2022/03/29 05:56:21;;;;;;;64.67;27.13;;;8.70;99.90;;;;;;5085706;28;20504;-73
2022/03/29 05:58:48;;;;;;;47.43;24.47;;;8.80;99.90;;;;;;5077920;28;20876;-74
2022/03/29 06:01:14;;;;;;;47.10;24.07;;;8.80;99.90;;;;;;5078695;28;20468;-74
2022/03/29 06:03:41;;;;;;;51.17;23.47;;;8.80;99.90;;;;;;5079810;28;21050;-74
2022/03/29 06:06:08;;;;;;;55.63;24.77;;;8.90;99.90;;;;;;5077767;28;20447;-74
2022/03/29 06:08:35;;;;;;;64.60;25.70;;;8.90;99.90;;;;;;5086633;28;20477;-73
2022/03/29 06:11:04;;;;;;;56.83;24.80;;;8.90;99.90;;;;;;5076232;28;20479;-74
2022/03/29 06:13:31;;;;;;;80.17;25.90;;;9.00;99.90;;;;;;5085231;28;20455;-74
2022/03/29 06:15:58;;;;;;;50.10;23.20;;;9.00;99.90;;;;;;5077187;28;20520;-73
2022/03/29 06:18:25;;;;;;;60.67;24.87;;;9.00;99.90;;;;;;5080344;28;20530;-74
2022/03/29 06:20:52;;;;;;;44.83;23.03;;;9.10;99.90;;;;;;5087301;28;20496;-74
2022/03/29 06:23:19;;;;;;;56.97;25.73;;;9.10;99.90;;;;;;5080905;28;20447;-74
2022/03/29 06:25:47;;;;;;;56.87;26.23;;;9.20;99.90;;;;;;5076282;28;20455;-74
2022/03/29 06:28:15;;;;;;;63.33;24.00;;;9.20;99.90;;;;;;5079612;28;20575;-74
2022/03/29 06:30:42;;;;;;;54.00;24.70;;;9.30;99.90;;;;;;5082017;28;20527;-74
2022/03/29 06:33:09;;;;;;;49.07;24.43;;;9.30;99.90;;;;;;5081664;28;20444;-73
2022/03/29 06:35:38;;;;;;;52.40;23.87;;;9.40;99.90;;;;;;5083144;28;20498;-74
2022/03/29 06:38:06;;;;;;;51.67;24.03;;;9.50;99.90;;;;;;5081962;28;20822;-74
2022/03/29 06:40:33;;;;;;;45.83;24.13;;;9.50;99.90;;;;;;5083811;28;20443;-74
2022/03/29 06:43:01;;;;;;;52.53;24.40;;;9.60;99.90;;;;;;5084222;28;20454;-74
2022/03/29 06:45:30;;;;;;;48.00;25.33;;;9.60;99.90;;;;;;5084837;28;20490;-74
2022/03/29 06:47:58;;;;;;;47.23;24.10;;;9.70;99.90;;;;;;5086256;28;20981;-74
2022/03/29 06:50:25;;;;;;;58.17;25.83;;;9.60;99.90;;;;;;5087098;28;20478;-74
2022/03/29 06:52:51;;;;;;;48.20;23.23;;;9.70;99.90;;;;;;5086191;28;20447;-74
2022/03/29 06:55:19;;;;;;;47.47;23.63;;;9.80;99.90;;;;;;5085721;28;20459;-74
2022/03/29 06:57:46;;;;;;;49.67;22.70;;;9.80;99.90;;;;;;5085025;28;20470;-74
2022/03/29 07:00:14;;;;;;;46.40;23.20;;;9.90;99.90;;;;;;5085186;28;20459;-73
2022/03/29 07:02:42;;;;;;;48.90;24.50;;;9.90;99.90;;;;;;5085166;28;20569;-74
2022/03/29 07:05:10;;;;;;;52.33;25.27;;;10.00;99.90;;;;;;5085116;28;20454;-73
2022/03/29 07:07:37;;;;;;;51.13;23.73;;;10.00;99.90;;;;;;5086542;28;20506;-73
2022/03/29 07:12:50;;;;;;;46.20;24.60;;;10.10;99.90;;;;;;5086008;28;20430;-73
2022/03/29 07:15:18;;;;;;;46.10;22.93;;;10.20;99.90;;;;;;5085929;28;20516;-73
2022/03/29 07:17:46;;;;;;;42.90;22.47;;;10.20;99.90;;;;;;5084878;28;20479;-73
2022/03/29 07:20:14;;;;;;;47.87;22.67;;;10.30;99.90;;;;;;5086400;28;20515;-73
2022/03/29 07:22:41;;;;;;;49.37;22.83;;;10.40;99.90;;;;;;5085968;28;20461;-73
2022/03/29 07:25:08;;;;;;;45.90;24.50;;;10.40;99.90;;;;;;5083700;28;20966;-73
2022/03/29 07:27:35;;;;;;;44.80;22.57;;;10.50;99.90;;;;;;5084406;28;20470;-73
2022/03/29 07:30:03;;;;;;;44.33;21.90;;;10.60;99.90;;;;;;5086164;28;20521;-73
2022/03/29 07:32:30;;;;;;;48.43;23.50;;;10.60;99.90;;;;;;5084689;28;20509;-73
2022/03/29 07:34:58;;;;;;;48.27;23.50;;;10.70;99.90;;;;;;5084202;28;20481;-73
2022/03/29 07:37:25;;;;;;;51.00;23.00;;;10.80;99.90;;;;;;5085976;28;20475;-73
2022/03/29 07:39:53;;;;;;;50.57;24.03;;;10.90;99.90;;;;;;5085766;28;20477;-72
2022/03/29 07:42:21;;;;;;;44.70;23.60;;;11.00;99.90;;;;;;5082178;28;20516;-73
2022/03/29 07:44:49;;;;;;;50.53;22.70;;;11.00;99.90;;;;;;5084539;28;20455;-73
2022/03/29 07:47:17;;;;;;;43.20;22.47;;;11.00;99.90;;;;;;5085919;28;20844;-74
2022/03/29 07:49:44;;;;;;;43.60;23.13;;;11.20;99.90;;;;;;5084753;28;20450;-73
2022/03/29 07:52:12;;;;;;;44.33;22.93;;;11.30;99.90;;;;;;5084989;28;20543;-74
2022/03/29 07:54:39;;;;;;;49.90;22.93;;;11.40;99.90;;;;;;5084571;28;20451;-73
2022/03/29 07:57:08;;;;;;;39.10;21.93;;;11.50;99.90;;;;;;5085085;28;20886;-73
2022/03/29 07:59:37;;;;;;;52.00;23.07;;;11.60;99.90;;;;;;5085784;28;20465;-73
2022/03/29 08:02:05;;;;;;;50.20;22.77;;;11.60;99.90;;;;;;5082786;28;20459;-74
2022/03/29 08:04:31;;;;;;;46.00;21.97;;;11.60;99.90;;;;;;5084241;28;21220;-73
2022/03/29 08:06:58;;;;;;;44.10;21.93;;;11.70;99.90;;;;;;5083073;28;21187;-73
2022/03/29 08:09:27;;;;;;;46.90;23.13;;;11.60;99.90;;;;;;5085513;28;20446;-73
2022/03/29 08:11:55;;;;;;;45.93;22.63;;;11.60;99.90;;;;;;5083786;28;20555;-73
2022/03/29 08:14:21;;;;;;;47.30;22.90;;;11.60;99.90;;;;;;5084180;28;20474;-73
2022/03/29 08:16:48;;;;;;;44.03;21.70;;;11.80;99.90;;;;;;5082324;28;20465;-74
2022/03/29 08:19:15;;;;;;;36.90;21.30;;;11.80;99.90;;;;;;5084973;28;20520;-73
2022/03/29 08:21:52;;;;;;;39.07;21.27;;;11.90;99.90;;;;;;5082664;28;20463;-73
2022/03/29 08:24:19;;;;;;;40.07;20.73;;;12.00;99.90;;;;;;5082611;28;20454;-73
2022/03/29 08:26:48;;;;;;;44.27;23.10;;;12.10;99.90;;;;;;5084500;28;20558;-74
2022/03/29 08:29:16;;;;;;;43.43;22.27;;;12.10;99.90;;;;;;5081755;28;20875;-73
2022/03/29 08:31:43;;;;;;;38.97;21.27;;;12.10;99.90;;;;;;5083004;28;20475;-73
2022/03/29 08:34:11;;;;;;;36.60;20.60;;;12.10;99.90;;;;;;5083871;28;20462;-73
2022/03/29 08:36:38;;;;;;;43.10;22.07;;;12.20;99.90;;;;;;5083771;28;20547;-73
2022/03/29 08:39:06;;;;;;;37.87;22.47;;;12.30;99.90;;;;;;5083221;28;20604;-73
2022/03/29 08:41:37;;;;;;;45.30;21.77;;;12.40;99.90;;;;;;5084021;28;20504;-73
2022/03/29 08:44:06;;;;;;;44.83;21.93;;;12.40;99.90;;;;;;5082203;28;20530;-72
2022/03/29 08:46:35;;;;;;;45.20;21.40;;;12.50;99.90;;;;;;5082276;28;20964;-73
2022/03/29 08:49:03;;;;;;;138.23;22.57;;;12.60;99.90;;;;;;5083814;28;20503;-73
2022/03/29 08:51:30;;;;;;;40.23;20.10;;;13.00;99.90;;;;;;5083632;28;20482;-73
2022/03/29 08:53:57;;;;;;;37.67;21.77;;;13.30;99.90;;;;;;5082695;28;20447;-73
2022/03/29 08:56:24;;;;;;;42.93;20.77;;;13.40;99.90;;;;;;5083976;28;20638;-73
2022/03/29 08:58:51;;;;;;;40.00;19.63;;;13.50;99.90;;;;;;5081997;28;20977;-73
2022/03/29 09:01:21;;;;;;;37.57;19.47;;;13.60;99.90;;;;;;5083911;28;20446;-74
2022/03/29 09:04:02;;;;;;;30.77;18.53;;;13.80;99.90;;;;;;5082538;28;20535;-74
2022/03/29 09:06:29;;;;;;;44.80;21.00;;;13.90;99.90;;;;;;5084133;28;20506;-73
2022/03/29 09:08:56;;;;;;;43.77;22.10;;;14.10;99.90;;;;;;5083800;28;20486;-73
2022/03/29 09:11:22;;;;;;;37.20;21.70;;;14.20;99.90;;;;;;5084785;28;20490;-73
2022/03/29 09:14:02;;;;;;;45.93;22.87;;;14.30;99.90;;;;;;5082518;28;20442;-73
2022/03/29 09:16:31;;;;;;;34.53;21.00;;;14.30;99.90;;;;;;5084154;28;20507;-73
2022/03/29 09:18:59;;;;;;;33.80;20.10;;;14.40;99.90;;;;;;5082170;28;20474;-73
2022/03/29 09:21:27;;;;;;;39.17;20.60;;;14.40;99.90;;;;;;5083860;28;20454;-73
2022/03/29 09:24:05;;;;;;;36.17;20.80;;;14.40;99.90;;;;;;5083391;28;20443;-73
2022/03/29 09:26:32;;;;;;;38.70;21.40;;;14.50;99.90;;;;;;5083574;28;20523;-73
2022/03/29 09:28:59;;;;;;;36.43;19.30;;;14.50;99.90;;;;;;5083838;28;20470;-73
2022/03/29 09:31:27;;;;;;;30.90;18.90;;;14.60;99.90;;;;;;5085627;28;20531;-73
2022/03/29 09:34:11;;;;;;;34.50;20.50;;;14.60;99.90;;;;;;5083844;28;20454;-73
2022/03/29 09:36:43;;;;;;;37.70;18.40;;;14.50;99.90;;;;;;5083598;28;20992;-73
2022/03/29 09:39:29;;;;;;;40.10;20.30;;;14.60;99.90;;;;;;5084246;28;20477;-74
2022/03/29 09:41:58;;;;;;;30.57;19.50;;;14.70;99.90;;;;;;5087637;28;20462;-73
2022/03/29 09:44:35;;;;;;;36.10;19.57;;;14.90;99.90;;;;;;5086918;28;20531;-74
2022/03/29 09:47:04;;;;;;;35.23;19.57;;;15.00;99.90;;;;;;5086400;28;20465;-74
2022/03/29 09:49:53;;;;;;;40.17;20.03;;;15.00;99.90;;;;;;5088981;28;20478;-73
2022/03/29 09:52:21;;;;;;;37.73;20.10;;;15.10;99.90;;;;;;5086269;28;20482;-73
2022/03/29 09:55:14;;;;;;;29.70;17.60;;;15.20;99.90;;;;;;5086921;28;20455;-73
2022/03/29 09:57:43;;;;;;;26.47;16.10;;;15.20;99.90;;;;;;5087763;28;20470;-73
2022/03/29 10:00:12;;;;;;;29.90;17.53;;;15.20;99.90;;;;;;5079700;28;20480;-73
2022/03/29 10:02:41;;;;;;;29.30;17.33;;;15.20;99.90;;;;;;5086781;28;20554;-73
2022/03/29 10:05:11;;;;;;;32.73;17.87;;;15.30;99.90;;;;;;5086209;28;20460;-74
2022/03/29 10:07:43;;;;;;;36.63;17.60;;;15.40;99.90;;;;;;5087453;28;20978;-73
2022/03/29 10:10:10;;;;;;;31.83;16.83;;;15.60;99.90;;;;;;5087778;28;20453;-72
2022/03/29 10:12:37;;;;;;;26.90;14.77;;;15.80;99.90;;;;;;5086728;28;20481;-73
2022/03/29 10:15:05;;;;;;;26.20;14.80;;;15.60;99.90;;;;;;5086666;28;20877;-73
2022/03/29 10:17:33;;;;;;;25.07;14.63;;;15.60;99.90;;;;;;5087524;28;20545;-73
2022/03/29 10:20:01;;;;;;;26.37;14.27;;;15.60;99.90;;;;;;5087716;28;20449;-73
2022/03/29 10:22:30;;;;;;;29.93;15.80;;;15.50;99.90;;;;;;5085160;28;20574;-73
2022/03/29 10:24:56;;;;;;;24.20;15.27;;;15.50;99.90;;;;;;5085438;28;20484;-73
2022/03/29 10:27:23;;;;;;;22.97;14.23;;;15.60;99.90;;;;;;5086932;28;20491;-73
2022/03/29 10:29:50;;;;;;;24.67;15.17;;;15.50;99.90;;;;;;5086759;28;20974;-73
2022/03/29 10:32:29;;;;;;;24.40;15.83;;;15.50;99.90;;;;;;5085204;28;20531;-73
2022/03/29 10:35:07;;;;;;;20.90;14.37;;;15.40;99.90;;;;;;5086787;28;20437;-73
2022/03/29 10:37:54;;;;;;;22.80;12.97;;;15.40;99.90;;;;;;5087300;28;20478;-72
2022/03/29 10:40:37;;;;;;;20.50;12.73;;;15.40;99.90;;;;;;5085817;28;20496;-70
2022/03/29 10:43:27;;;;;;;18.83;11.23;;;15.60;99.90;;;;;;5082769;28;20899;-70
2022/03/29 10:45:53;;;;;;;24.63;12.97;;;16.00;99.90;;;;;;5085369;28;20447;-70
2022/03/29 10:48:20;;;;;;;23.30;13.47;;;16.20;99.90;;;;;;5087231;28;20519;-70
2022/03/29 10:50:58;;;;;;;28.00;13.57;;;16.30;99.90;;;;;;5087781;28;20984;-72
2022/03/29 10:53:29;;;;;;;25.70;13.10;;;16.10;99.90;;;;;;5085063;28;21017;-72
2022/03/29 10:56:20;;;;;;;21.93;13.50;;;16.10;99.90;;;;;;5086565;28;20843;-72
2022/03/29 10:59:12;;;;;;;20.10;10.43;;;16.20;99.90;;;;;;5087907;28;21040;-73
2022/03/29 11:01:40;;;;;;;19.07;11.40;;;16.50;99.90;;;;;;5083395;28;21199;-73
2022/03/29 11:04:13;;;;;;;21.47;11.93;;;16.70;99.90;;;;;;5085738;28;20800;-73
2022/03/29 11:07:14;;;;;;;18.53;11.50;;;17.00;99.90;;;;;;5087127;28;21025;-73
2022/03/29 11:09:46;;;;;;;17.10;11.13;;;17.30;99.90;;;;;;5084697;28;20447;-73
2022/03/29 11:12:39;;;;;;;19.63;12.50;;;17.30;99.90;;;;;;5088010;28;20505;-73
2022/03/29 11:15:48;;;;;;;16.87;11.13;;;17.40;99.90;;;;;;5086230;28;20561;-75
2022/03/29 11:18:39;;;;;;;18.27;10.67;;;17.50;99.90;;;;;;5084546;28;20477;-72
2022/03/29 11:21:06;;;;;;;18.97;12.00;;;17.00;99.90;;;;;;5082213;28;20430;-72
2022/03/29 11:23:34;;;;;;;19.60;11.33;;;17.00;99.90;;;;;;5086273;28;20425;-72
2022/03/29 11:26:08;;;;;;;19.60;11.70;;;17.20;99.90;;;;;;5084949;28;20417;-72
2022/03/29 11:28:36;;;;;;;15.60;11.70;;;17.50;99.90;;;;;;5087457;28;20445;-72
2022/03/29 11:31:03;;;;;;;21.63;11.03;;;17.70;99.90;;;;;;5087540;28;20460;-72
2022/03/29 11:33:34;;;;;;;20.87;12.30;;;18.00;99.90;;;;;;5085863;28;21352;-72
2022/03/29 11:36:01;;;;;;;17.53;11.80;;;18.20;99.90;;;;;;5087855;28;20422;-72
2022/03/29 11:38:32;;;;;;;15.87;9.37;;;17.90;99.90;;;;;;5086889;28;20467;-72
2022/03/29 11:40:59;;;;;;;16.70;11.00;;;17.70;99.90;;;;;;5087281;28;20439;-72
2022/03/29 11:43:27;;;;;;;14.97;9.83;;;17.70;99.90;;;;;;5087744;28;20846;-72
2022/03/29 11:45:55;;;;;;;19.43;9.77;;;17.80;99.90;;;;;;5086655;28;20971;-73
2022/03/29 11:48:24;;;;;;;14.90;9.20;;;18.20;99.90;;;;;;5088149;28;20810;-72
2022/03/29 11:50:53;;;;;;;13.97;10.47;;;18.40;99.90;;;;;;5087718;28;20490;-72
2022/03/29 11:53:21;;;;;;;17.50;9.63;;;18.30;99.90;;;;;;5086251;28;20478;-73
2022/03/29 11:55:59;;;;;;;17.40;10.23;;;18.10;99.90;;;;;;5086622;28;21014;-72
2022/03/29 11:58:29;;;;;;;16.73;10.17;;;18.00;99.90;;;;;;5087805;28;20449;-73
2022/03/29 12:01:04;;;;;;;13.60;8.97;;;17.70;99.90;;;;;;5085169;28;20479;-71
2022/03/29 12:03:34;;;;;;;17.20;10.30;;;17.50;99.90;;;;;;5086293;28;20479;-72
2022/03/29 12:06:09;;;;;;;15.10;10.30;;;17.40;99.90;;;;;;5085452;28;20933;-72
2022/03/29 12:08:47;;;;;;;16.90;9.73;;;17.50;99.90;;;;;;5085028;28;20468;-74
2022/03/29 12:11:15;;;;;;;20.83;8.50;;;17.60;99.90;;;;;;5082916;28;20538;-72
2022/03/29 12:13:47;;;;;;;18.63;10.57;;;17.70;99.90;;;;;;5085296;28;20801;-74
2022/03/29 12:16:22;;;;;;;18.50;9.53;;;17.70;99.90;;;;;;5085212;28;20447;-72
2022/03/29 12:18:49;;;;;;;18.23;9.90;;;17.90;99.90;;;;;;5085683;28;20448;-72
2022/03/29 12:21:17;;;;;;;14.97;9.53;;;18.00;99.90;;;;;;5084494;28;20429;-71
2022/03/29 12:23:44;;;;;;;18.20;10.00;;;17.80;99.90;;;;;;5084176;28;20481;-71
2022/03/29 12:26:12;;;;;;;13.10;9.90;;;17.80;99.90;;;;;;5085485;28;20474;-72
2022/03/29 12:28:41;;;;;;;15.77;10.20;;;17.90;99.90;;;;;;5086403;28;20719;-72
2022/03/29 12:31:14;;;;;;;26.97;9.80;;;17.90;99.90;;;;;;5083697;28;20448;-72
2022/03/29 12:33:41;;;;;;;14.40;9.37;;;18.10;99.90;;;;;;5085690;28;21812;-73
2022/03/29 12:36:10;;;;;;;14.40;8.60;;;18.40;99.90;;;;;;5083507;28;20425;-71
2022/03/29 12:38:42;;;;;;;20.60;9.80;;;18.30;99.90;;;;;;5084837;28;20474;-72
2022/03/29 12:41:11;;;;;;;13.03;9.50;;;18.00;99.90;;;;;;5084138;28;20420;-71
2022/03/29 12:43:37;;;;;;;14.53;9.53;;;17.90;99.90;;;;;;5084563;28;20442;-72
2022/03/29 12:46:09;;;;;;;11.30;8.30;;;17.70;99.90;;;;;;5082133;28;20437;-71